Amherst, OH

10:05 PM EDT on May 27, 2015 (GMT -0400)
Amherst Township | | Change Station
CLOSE
Current Station
Personal Weather Station
Location: Amherst, OH
Elevation: 725 ft
Nearby Weather Stations

Elev 725 ft 41.40 °N, 82.21 °W | Updated 23 seconds ago

Mostly Cloudy
Mostly Cloudy
65.5 °F
Feels Like 65.5 °F
N
0.0
Wind Variable Wind from SW
Gusts 1.0 mph

Today
High -- | Low -- °F
--% Chance of Precip.
Yesterday
High -- | Low -- °F
Precip. -- in
6:00 AM 8:51 PM
Waxing Gibbous, 72% visible
Pressure 30.08 in
Visibility 10.0 miles
Clouds Scattered Clouds 4500 ft
Mostly Cloudy 5500 ft
Mostly Cloudy 7500 ft
Dew Point 62 °F
Humidity 90%
Rainfall 0.40 in
Snow Depth Not available.
UV 0 out of 12
Pollen 8.00 out of 12
Air Quality Not available.
Flu Activity Local Activity
METAR KLPR 280153Z AUTO 25006KT 10SM SCT045 BKN055 BKN075 18/18 A3009 RMK AO2 RAE0057 PRESRR SLP185 P0001 T01780178 TSNO

More Conditions Fewer Conditions

Pressure 30.08 in
Visibility 10.0 miles
Clouds Scattered Clouds 4500 ft
Mostly Cloudy 5500 ft
Mostly Cloudy 7500 ft
Dew Point 62 °F
Humidity 90%
Rainfall 0.40 in
Snow Depth Not available.
UV 0 out of 12
Pollen 8.00 out of 12
Air Quality Not available.
Flu Activity Local Activity
METAR KLPR 280153Z AUTO 25006KT 10SM SCT045 BKN055 BKN075 18/18 A3009 RMK AO2 RAE0057 PRESRR SLP185 P0001 T01780178 TSNO

More Conditions Fewer Conditions

10-Day Weather Forecast

Almanac

Astronomy

May. 27, 2015 Rise Set
Actual Time
Civil Twilight
Nautical Twilight
Astronomical Twilight
Moon
Length of Visible Light
Length of Day
Tomorrow will be .
, % of the Moon is Illuminated

Today's Extremes

State Highs State Lows

Community

WunderPhotos

Upload Photos

1,824,857 photos uploaded!

WunderBlogs® & News

Nearby

Air Quality

  Air Quality AQ Index Pollutant
Not available.

Snow Depth

Station Depth Elevation

Earthquake Activity

City Distance Mag. Time & Date
Minimum magnitude displayed is 2.5.

Coastal Water Temperatures

Place Temperature

Stations

Nearby Weather Stations

Station Location Temp. Windchill Dew Point Humidity Wind Precip. Elev Updated Type